Terminal Aerodrome Forecast
Issued by NWS

Home | Current Version | Previous Version | Text Only | Print | Product List | Glossary On
Versions: 1 2 3 4 5 6 7 8 9 10 11 12 13 14 15 16 17 18
000
FTUS46 KPDT 270808 AAB
TAFYKM
TAF AMD
KYKM 270808Z 2708/2806 25005KT P6SM FEW060 SCT100
      TEMPO 2708/2712 4SM BR
     FM271200 27006KT 5SM BR SCT100
     FM271900 27010KT P6SM SCT090 SCT140=

USA.gov is the U.S. government's official web portal to all federal, state and local government web resources and services.